sensor_id;sensor_type;location;lat;lon;timestamp;P1;durP1;ratioP1;P2;durP2;ratioP2
53903;SDS011;39812;52.430;16.936;2023-07-29T00:01:43;9.45;;;7.13;;
53903;SDS011;39812;52.430;16.936;2023-07-29T00:04:09;9.52;;;6.75;;
53903;SDS011;39812;52.430;16.936;2023-07-29T00:06:35;8.05;;;6.68;;
53903;SDS011;39812;52.430;16.936;2023-07-29T00:09:01;8.68;;;6.75;;
53903;SDS011;39812;52.430;16.936;2023-07-29T00:11:27;8.77;;;7.20;;
53903;SDS011;39812;52.430;16.936;2023-07-29T00:13:53;10.13;;;7.22;;
53903;SDS011;39812;52.430;16.936;2023-07-29T00:16:19;8.63;;;7.22;;
53903;SDS011;39812;52.430;16.936;2023-07-29T00:18:47;14.40;;;8.13;;
53903;SDS011;39812;52.430;16.936;2023-07-29T00:21:13;12.52;;;7.85;;
53903;SDS011;39812;52.430;16.936;2023-07-29T00:23:39;12.35;;;9.02;;
53903;SDS011;39812;52.430;16.936;2023-07-29T00:26:04;12.38;;;8.95;;
53903;SDS011;39812;52.430;16.936;2023-07-29T00:28:30;11.73;;;9.00;;
53903;SDS011;39812;52.430;16.936;2023-07-29T00:30:55;16.13;;;9.27;;
53903;SDS011;39812;52.430;16.936;2023-07-29T00:33:21;14.05;;;9.05;;
53903;SDS011;39812;52.430;16.936;2023-07-29T00:35:47;13.15;;;8.82;;
53903;SDS011;39812;52.430;16.936;2023-07-29T00:38:12;11.90;;;8.80;;
53903;SDS011;39812;52.430;16.936;2023-07-29T00:40:38;12.48;;;9.63;;
53903;SDS011;39812;52.430;16.936;2023-07-29T00:43:04;15.45;;;9.18;;
53903;SDS011;39812;52.430;16.936;2023-07-29T00:45:30;14.45;;;9.93;;
53903;SDS011;39812;52.430;16.936;2023-07-29T00:47:57;12.85;;;8.75;;
53903;SDS011;39812;52.430;16.936;2023-07-29T00:50:24;14.07;;;9.18;;
53903;SDS011;39812;52.430;16.936;2023-07-29T00:52:52;11.82;;;9.52;;
53903;SDS011;39812;52.430;16.936;2023-07-29T00:55:19;15.23;;;9.70;;
53903;SDS011;39812;52.430;16.936;2023-07-29T00:57:44;15.23;;;9.60;;
53903;SDS011;39812;52.430;16.936;2023-07-29T01:00:13;13.85;;;9.40;;
53903;SDS011;39812;52.430;16.936;2023-07-29T01:02:40;14.32;;;9.80;;
53903;SDS011;39812;52.430;16.936;2023-07-29T01:05:06;12.77;;;10.18;;
53903;SDS011;39812;52.430;16.936;2023-07-29T01:10:19;16.55;;;10.05;;
53903;SDS011;39812;52.430;16.936;2023-07-29T01:13:10;15.90;;;10.93;;
53903;SDS011;39812;52.430;16.936;2023-07-29T01:18:25;18.25;;;10.77;;
53903;SDS011;39812;52.430;16.936;2023-07-29T01:20:53;16.80;;;10.80;;
53903;SDS011;39812;52.430;16.936;2023-07-29T01:23:28;17.42;;;10.52;;
53903;SDS011;39812;52.430;16.936;2023-07-29T01:25:55;18.75;;;12.27;;
53903;SDS011;39812;52.430;16.936;2023-07-29T01:28:21;17.08;;;11.98;;
53903;SDS011;39812;52.430;16.936;2023-07-29T01:30:47;21.15;;;11.07;;
53903;SDS011;39812;52.430;16.936;2023-07-29T01:33:18;19.98;;;11.80;;
53903;SDS011;39812;52.430;16.936;2023-07-29T01:36:01;18.33;;;12.40;;
53903;SDS011;39812;52.430;16.936;2023-07-29T01:38:29;22.67;;;12.10;;
53903;SDS011;39812;52.430;16.936;2023-07-29T01:41:02;23.00;;;12.10;;
53903;SDS011;39812;52.430;16.936;2023-07-29T01:43:31;19.80;;;12.18;;
53903;SDS011;39812;52.430;16.936;2023-07-29T01:45:58;17.38;;;10.68;;
53903;SDS011;39812;52.430;16.936;2023-07-29T01:48:24;18.25;;;10.73;;
53903;SDS011;39812;52.430;16.936;2023-07-29T01:50:50;16.50;;;10.48;;
53903;SDS011;39812;52.430;16.936;2023-07-29T01:53:15;16.83;;;10.93;;
53903;SDS011;39812;52.430;16.936;2023-07-29T01:55:42;19.98;;;12.38;;
53903;SDS011;39812;52.430;16.936;2023-07-29T01:58:10;19.52;;;11.70;;
53903;SDS011;39812;52.430;16.936;2023-07-29T02:00:35;22.25;;;11.15;;
53903;SDS011;39812;52.430;16.936;2023-07-29T02:03:01;18.25;;;11.55;;
53903;SDS011;39812;52.430;16.936;2023-07-29T02:05:27;19.38;;;12.07;;
53903;SDS011;39812;52.430;16.936;2023-07-29T02:07:53;18.27;;;10.90;;
53903;SDS011;39812;52.430;16.936;2023-07-29T02:10:18;20.60;;;11.38;;
53903;SDS011;39812;52.430;16.936;2023-07-29T02:12:44;17.35;;;11.32;;
53903;SDS011;39812;52.430;16.936;2023-07-29T02:15:09;17.60;;;11.27;;
53903;SDS011;39812;52.430;16.936;2023-07-29T02:17:35;14.68;;;11.32;;
53903;SDS011;39812;52.430;16.936;2023-07-29T02:20:01;21.52;;;12.02;;
53903;SDS011;39812;52.430;16.936;2023-07-29T02:22:28;15.00;;;11.23;;
53903;SDS011;39812;52.430;16.936;2023-07-29T02:24:54;17.13;;;12.13;;
53903;SDS011;39812;52.430;16.936;2023-07-29T02:27:20;16.58;;;12.02;;
53903;SDS011;39812;52.430;16.936;2023-07-29T02:29:46;15.35;;;10.88;;
53903;SDS011;39812;52.430;16.936;2023-07-29T02:32:11;14.60;;;11.18;;
53903;SDS011;39812;52.430;16.936;2023-07-29T02:34:37;14.80;;;10.30;;
53903;SDS011;39812;52.430;16.936;2023-07-29T02:37:03;18.80;;;11.32;;
53903;SDS011;39812;52.430;16.936;2023-07-29T02:39:28;15.75;;;11.38;;
53903;SDS011;39812;52.430;16.936;2023-07-29T02:41:54;17.48;;;11.52;;
53903;SDS011;39812;52.430;16.936;2023-07-29T02:44:21;16.67;;;11.45;;
53903;SDS011;39812;52.430;16.936;2023-07-29T02:46:46;15.07;;;8.85;;
53903;SDS011;39812;52.430;16.936;2023-07-29T02:49:12;14.10;;;9.02;;
53903;SDS011;39812;52.430;16.936;2023-07-29T02:51:37;12.38;;;8.57;;
53903;SDS011;39812;52.430;16.936;2023-07-29T02:54:03;13.63;;;8.88;;
53903;SDS011;39812;52.430;16.936;2023-07-29T02:56:29;16.27;;;9.55;;
53903;SDS011;39812;52.430;16.936;2023-07-29T02:58:55;16.02;;;10.02;;
53903;SDS011;39812;52.430;16.936;2023-07-29T03:01:22;12.85;;;9.88;;
53903;SDS011;39812;52.430;16.936;2023-07-29T03:03:50;15.30;;;10.75;;
53903;SDS011;39812;52.430;16.936;2023-07-29T03:06:15;17.00;;;11.52;;
53903;SDS011;39812;52.430;16.936;2023-07-29T03:08:41;16.17;;;12.20;;
53903;SDS011;39812;52.430;16.936;2023-07-29T03:11:08;19.02;;;13.95;;
53903;SDS011;39812;52.430;16.936;2023-07-29T03:13:35;23.92;;;15.93;;
53903;SDS011;39812;52.430;16.936;2023-07-29T03:16:18;25.98;;;15.77;;
53903;SDS011;39812;52.430;16.936;2023-07-29T03:18:44;27.67;;;16.50;;
53903;SDS011;39812;52.430;16.936;2023-07-29T03:21:10;27.83;;;16.65;;
53903;SDS011;39812;52.430;16.936;2023-07-29T03:23:36;23.10;;;15.40;;
53903;SDS011;39812;52.430;16.936;2023-07-29T03:26:03;29.40;;;17.42;;
53903;SDS011;39812;52.430;16.936;2023-07-29T03:28:38;27.45;;;16.55;;
53903;SDS011;39812;52.430;16.936;2023-07-29T03:31:08;27.73;;;16.98;;
53903;SDS011;39812;52.430;16.936;2023-07-29T03:33:34;29.13;;;16.45;;
53903;SDS011;39812;52.430;16.936;2023-07-29T03:36:00;25.45;;;16.73;;
53903;SDS011;39812;52.430;16.936;2023-07-29T03:38:26;29.52;;;18.00;;
53903;SDS011;39812;52.430;16.936;2023-07-29T03:40:52;29.45;;;16.98;;
53903;SDS011;39812;52.430;16.936;2023-07-29T03:43:18;33.55;;;20.48;;
53903;SDS011;39812;52.430;16.936;2023-07-29T03:45:44;30.65;;;19.30;;
53903;SDS011;39812;52.430;16.936;2023-07-29T03:48:09;30.08;;;17.85;;
53903;SDS011;39812;52.430;16.936;2023-07-29T03:50:35;36.80;;;18.98;;
53903;SDS011;39812;52.430;16.936;2023-07-29T03:53:02;33.00;;;19.38;;
53903;SDS011;39812;52.430;16.936;2023-07-29T03:55:28;25.98;;;16.45;;
53903;SDS011;39812;52.430;16.936;2023-07-29T03:57:59;27.20;;;16.75;;
53903;SDS011;39812;52.430;16.936;2023-07-29T04:00:25;29.35;;;18.77;;
53903;SDS011;39812;52.430;16.936;2023-07-29T04:02:52;25.38;;;16.98;;
53903;SDS011;39812;52.430;16.936;2023-07-29T04:05:17;27.10;;;16.67;;
53903;SDS011;39812;52.430;16.936;2023-07-29T04:07:43;27.63;;;16.40;;
53903;SDS011;39812;52.430;16.936;2023-07-29T04:10:09;23.20;;;15.85;;
53903;SDS011;39812;52.430;16.936;2023-07-29T04:12:35;20.20;;;14.45;;
53903;SDS011;39812;52.430;16.936;2023-07-29T04:15:00;19.52;;;13.43;;
53903;SDS011;39812;52.430;16.936;2023-07-29T04:17:26;20.40;;;13.55;;
53903;SDS011;39812;52.430;16.936;2023-07-29T04:19:52;18.83;;;12.32;;
53903;SDS011;39812;52.430;16.936;2023-07-29T04:22:17;17.73;;;13.38;;
53903;SDS011;39812;52.430;16.936;2023-07-29T04:24:43;19.40;;;13.43;;
53903;SDS011;39812;52.430;16.936;2023-07-29T04:27:08;22.05;;;13.95;;
53903;SDS011;39812;52.430;16.936;2023-07-29T04:29:34;19.08;;;12.90;;
53903;SDS011;39812;52.430;16.936;2023-07-29T04:32:01;19.85;;;14.18;;
53903;SDS011;39812;52.430;16.936;2023-07-29T04:34:27;22.75;;;13.50;;
53903;SDS011;39812;52.430;16.936;2023-07-29T04:36:53;21.92;;;14.57;;
53903;SDS011;39812;52.430;16.936;2023-07-29T04:39:19;18.48;;;13.25;;
53903;SDS011;39812;52.430;16.936;2023-07-29T04:41:44;16.10;;;11.80;;
53903;SDS011;39812;52.430;16.936;2023-07-29T04:44:10;17.35;;;12.82;;
53903;SDS011;39812;52.430;16.936;2023-07-29T04:46:36;17.98;;;12.25;;
53903;SDS011;39812;52.430;16.936;2023-07-29T04:49:02;16.80;;;11.55;;
53903;SDS011;39812;52.430;16.936;2023-07-29T04:51:28;16.58;;;12.07;;
53903;SDS011;39812;52.430;16.936;2023-07-29T04:53:54;15.88;;;10.95;;
53903;SDS011;39812;52.430;16.936;2023-07-29T04:56:19;17.23;;;10.93;;
53903;SDS011;39812;52.430;16.936;2023-07-29T04:58:45;14.80;;;10.48;;
53903;SDS011;39812;52.430;16.936;2023-07-29T05:01:10;13.05;;;10.45;;
53903;SDS011;39812;52.430;16.936;2023-07-29T05:03:36;15.02;;;11.38;;
53903;SDS011;39812;52.430;16.936;2023-07-29T05:06:03;19.13;;;11.73;;
53903;SDS011;39812;52.430;16.936;2023-07-29T05:08:29;14.70;;;10.57;;
53903;SDS011;39812;52.430;16.936;2023-07-29T05:10:54;13.32;;;10.25;;
53903;SDS011;39812;52.430;16.936;2023-07-29T05:13:21;13.95;;;10.70;;
53903;SDS011;39812;52.430;16.936;2023-07-29T05:15:47;12.07;;;9.82;;
53903;SDS011;39812;52.430;16.936;2023-07-29T05:18:13;12.43;;;9.90;;
53903;SDS011;39812;52.430;16.936;2023-07-29T05:20:39;12.52;;;9.98;;
53903;SDS011;39812;52.430;16.936;2023-07-29T05:23:05;13.43;;;9.82;;
53903;SDS011;39812;52.430;16.936;2023-07-29T05:25:30;14.20;;;10.25;;
53903;SDS011;39812;52.430;16.936;2023-07-29T05:27:56;11.88;;;9.68;;
53903;SDS011;39812;52.430;16.936;2023-07-29T05:30:22;13.10;;;9.95;;
53903;SDS011;39812;52.430;16.936;2023-07-29T05:32:48;15.27;;;9.30;;
53903;SDS011;39812;52.430;16.936;2023-07-29T05:35:14;12.82;;;8.75;;
53903;SDS011;39812;52.430;16.936;2023-07-29T05:37:40;13.18;;;9.40;;
53903;SDS011;39812;52.430;16.936;2023-07-29T05:40:06;12.00;;;8.98;;
53903;SDS011;39812;52.430;16.936;2023-07-29T05:42:32;14.75;;;8.80;;
53903;SDS011;39812;52.430;16.936;2023-07-29T05:44:58;14.05;;;9.02;;
53903;SDS011;39812;52.430;16.936;2023-07-29T05:47:24;13.50;;;9.55;;
53903;SDS011;39812;52.430;16.936;2023-07-29T05:49:50;15.60;;;9.82;;
53903;SDS011;39812;52.430;16.936;2023-07-29T05:52:15;13.10;;;9.70;;
53903;SDS011;39812;52.430;16.936;2023-07-29T05:54:41;14.55;;;9.73;;
53903;SDS011;39812;52.430;16.936;2023-07-29T05:57:10;15.07;;;10.27;;
53903;SDS011;39812;52.430;16.936;2023-07-29T05:59:37;11.18;;;8.02;;
53903;SDS011;39812;52.430;16.936;2023-07-29T06:02:02;11.98;;;8.77;;
53903;SDS011;39812;52.430;16.936;2023-07-29T06:04:28;11.55;;;8.65;;
53903;SDS011;39812;52.430;16.936;2023-07-29T06:06:54;12.57;;;8.48;;
53903;SDS011;39812;52.430;16.936;2023-07-29T06:09:20;9.55;;;7.78;;
53903;SDS011;39812;52.430;16.936;2023-07-29T06:11:50;10.93;;;7.60;;
53903;SDS011;39812;52.430;16.936;2023-07-29T06:14:16;11.80;;;8.02;;
53903;SDS011;39812;52.430;16.936;2023-07-29T06:16:41;12.88;;;7.80;;
53903;SDS011;39812;52.430;16.936;2023-07-29T06:19:07;11.63;;;7.40;;
53903;SDS011;39812;52.430;16.936;2023-07-29T06:21:33;15.77;;;7.57;;
53903;SDS011;39812;52.430;16.936;2023-07-29T06:23:59;12.93;;;7.68;;
53903;SDS011;39812;52.430;16.936;2023-07-29T06:26:25;9.15;;;7.18;;
53903;SDS011;39812;52.430;16.936;2023-07-29T06:28:51;11.63;;;7.75;;
53903;SDS011;39812;52.430;16.936;2023-07-29T06:31:16;11.18;;;7.00;;
53903;SDS011;39812;52.430;16.936;2023-07-29T06:33:42;9.85;;;7.68;;
53903;SDS011;39812;52.430;16.936;2023-07-29T06:36:07;8.63;;;6.25;;
53903;SDS011;39812;52.430;16.936;2023-07-29T06:38:33;8.73;;;6.03;;
53903;SDS011;39812;52.430;16.936;2023-07-29T06:40:59;12.18;;;7.55;;
53903;SDS011;39812;52.430;16.936;2023-07-29T06:43:24;9.23;;;7.40;;
53903;SDS011;39812;52.430;16.936;2023-07-29T06:45:50;9.35;;;7.28;;
53903;SDS011;39812;52.430;16.936;2023-07-29T06:48:16;9.82;;;7.72;;
53903;SDS011;39812;52.430;16.936;2023-07-29T06:50:43;11.25;;;8.05;;
53903;SDS011;39812;52.430;16.936;2023-07-29T06:53:09;9.63;;;7.28;;
53903;SDS011;39812;52.430;16.936;2023-07-29T06:55:35;14.77;;;7.80;;
53903;SDS011;39812;52.430;16.936;2023-07-29T06:58:00;11.77;;;7.85;;
53903;SDS011;39812;52.430;16.936;2023-07-29T07:00:26;10.45;;;7.35;;
53903;SDS011;39812;52.430;16.936;2023-07-29T07:02:51;9.77;;;7.22;;
53903;SDS011;39812;52.430;16.936;2023-07-29T07:05:17;9.63;;;6.88;;
53903;SDS011;39812;52.430;16.936;2023-07-29T07:07:42;8.93;;;7.18;;
53903;SDS011;39812;52.430;16.936;2023-07-29T07:10:08;10.35;;;7.28;;
53903;SDS011;39812;52.430;16.936;2023-07-29T07:12:34;7.03;;;5.63;;
53903;SDS011;39812;52.430;16.936;2023-07-29T07:15:00;8.73;;;6.30;;
53903;SDS011;39812;52.430;16.936;2023-07-29T07:17:26;9.25;;;7.38;;
53903;SDS011;39812;52.430;16.936;2023-07-29T07:19:51;7.05;;;6.05;;
53903;SDS011;39812;52.430;16.936;2023-07-29T07:22:17;7.72;;;5.60;;
53903;SDS011;39812;52.430;16.936;2023-07-29T07:24:44;7.53;;;5.47;;
53903;SDS011;39812;52.430;16.936;2023-07-29T07:27:09;9.18;;;5.95;;
53903;SDS011;39812;52.430;16.936;2023-07-29T07:29:35;6.25;;;5.22;;
53903;SDS011;39812;52.430;16.936;2023-07-29T07:32:01;6.75;;;5.13;;
53903;SDS011;39812;52.430;16.936;2023-07-29T07:34:27;6.32;;;5.25;;
53903;SDS011;39812;52.430;16.936;2023-07-29T07:36:52;5.95;;;4.88;;
53903;SDS011;39812;52.430;16.936;2023-07-29T07:39:18;7.03;;;4.85;;
53903;SDS011;39812;52.430;16.936;2023-07-29T07:41:44;7.55;;;5.00;;
53903;SDS011;39812;52.430;16.936;2023-07-29T07:44:09;5.90;;;4.50;;
53903;SDS011;39812;52.430;16.936;2023-07-29T07:46:37;6.38;;;4.63;;
53903;SDS011;39812;52.430;16.936;2023-07-29T07:49:03;5.38;;;4.53;;
53903;SDS011;39812;52.430;16.936;2023-07-29T07:51:28;4.85;;;4.10;;
53903;SDS011;39812;52.430;16.936;2023-07-29T07:53:54;6.13;;;5.00;;
53903;SDS011;39812;52.430;16.936;2023-07-29T07:56:19;6.53;;;5.18;;
53903;SDS011;39812;52.430;16.936;2023-07-29T07:58:45;4.45;;;3.90;;
53903;SDS011;39812;52.430;16.936;2023-07-29T08:01:11;5.15;;;3.95;;
53903;SDS011;39812;52.430;16.936;2023-07-29T08:03:37;6.55;;;4.50;;
53903;SDS011;39812;52.430;16.936;2023-07-29T08:06:02;5.90;;;3.60;;
53903;SDS011;39812;52.430;16.936;2023-07-29T08:08:29;4.30;;;3.70;;
53903;SDS011;39812;52.430;16.936;2023-07-29T08:10:55;4.25;;;3.17;;
53903;SDS011;39812;52.430;16.936;2023-07-29T08:13:22;3.55;;;2.95;;
53903;SDS011;39812;52.430;16.936;2023-07-29T08:15:49;4.22;;;3.20;;
53903;SDS011;39812;52.430;16.936;2023-07-29T08:18:15;3.17;;;2.85;;
53903;SDS011;39812;52.430;16.936;2023-07-29T08:20:51;3.45;;;2.58;;
53903;SDS011;39812;52.430;16.936;2023-07-29T08:23:18;3.65;;;2.72;;
53903;SDS011;39812;52.430;16.936;2023-07-29T08:25:44;3.70;;;2.90;;
53903;SDS011;39812;52.430;16.936;2023-07-29T08:28:09;5.65;;;3.20;;
53903;SDS011;39812;52.430;16.936;2023-07-29T08:30:36;3.13;;;2.72;;
53903;SDS011;39812;52.430;16.936;2023-07-29T08:33:01;4.90;;;2.95;;
53903;SDS011;39812;52.430;16.936;2023-07-29T08:35:27;4.07;;;3.22;;
53903;SDS011;39812;52.430;16.936;2023-07-29T08:37:53;3.65;;;2.90;;
53903;SDS011;39812;52.430;16.936;2023-07-29T08:40:18;2.92;;;2.58;;
53903;SDS011;39812;52.430;16.936;2023-07-29T08:42:51;4.63;;;3.30;;
53903;SDS011;39812;52.430;16.936;2023-07-29T08:45:19;3.70;;;2.78;;
53903;SDS011;39812;52.430;16.936;2023-07-29T08:47:45;4.03;;;2.75;;
53903;SDS011;39812;52.430;16.936;2023-07-29T08:50:12;3.97;;;3.15;;
53903;SDS011;39812;52.430;16.936;2023-07-29T08:52:40;3.10;;;2.78;;
53903;SDS011;39812;52.430;16.936;2023-07-29T08:55:07;4.45;;;3.20;;
53903;SDS011;39812;52.430;16.936;2023-07-29T08:57:33;4.25;;;2.92;;
53903;SDS011;39812;52.430;16.936;2023-07-29T09:00:00;4.00;;;2.90;;
53903;SDS011;39812;52.430;16.936;2023-07-29T09:02:27;5.30;;;3.20;;
53903;SDS011;39812;52.430;16.936;2023-07-29T09:04:54;4.70;;;3.10;;
53903;SDS011;39812;52.430;16.936;2023-07-29T09:07:19;8.52;;;3.80;;
53903;SDS011;39812;52.430;16.936;2023-07-29T09:09:46;3.63;;;2.92;;
53903;SDS011;39812;52.430;16.936;2023-07-29T09:12:11;4.25;;;3.50;;
53903;SDS011;39812;52.430;16.936;2023-07-29T09:14:37;4.38;;;2.60;;
53903;SDS011;39812;52.430;16.936;2023-07-29T09:17:02;6.47;;;3.00;;
53903;SDS011;39812;52.430;16.936;2023-07-29T09:19:33;4.90;;;3.00;;
53903;SDS011;39812;52.430;16.936;2023-07-29T09:21:59;4.13;;;2.60;;
53903;SDS011;39812;52.430;16.936;2023-07-29T09:24:25;4.97;;;3.17;;
53903;SDS011;39812;52.430;16.936;2023-07-29T09:26:54;4.18;;;2.95;;
53903;SDS011;39812;52.430;16.936;2023-07-29T09:29:23;4.10;;;2.45;;
53903;SDS011;39812;52.430;16.936;2023-07-29T09:31:53;4.50;;;2.10;;
53903;SDS011;39812;52.430;16.936;2023-07-29T09:34:18;4.47;;;2.28;;
53903;SDS011;39812;52.430;16.936;2023-07-29T09:36:44;3.78;;;2.40;;
53903;SDS011;39812;52.430;16.936;2023-07-29T09:39:12;4.97;;;2.55;;
53903;SDS011;39812;52.430;16.936;2023-07-29T09:41:38;3.63;;;2.75;;
53903;SDS011;39812;52.430;16.936;2023-07-29T09:44:04;3.45;;;2.45;;
53903;SDS011;39812;52.430;16.936;2023-07-29T09:46:37;3.42;;;2.30;;
53903;SDS011;39812;52.430;16.936;2023-07-29T09:49:03;5.22;;;2.17;;
53903;SDS011;39812;52.430;16.936;2023-07-29T09:51:30;3.75;;;2.40;;
53903;SDS011;39812;52.430;16.936;2023-07-29T09:53:56;3.35;;;2.50;;
53903;SDS011;39812;52.430;16.936;2023-07-29T09:56:25;2.90;;;2.35;;
53903;SDS011;39812;52.430;16.936;2023-07-29T09:58:51;3.10;;;2.30;;
53903;SDS011;39812;52.430;16.936;2023-07-29T10:01:17;4.20;;;2.47;;
53903;SDS011;39812;52.430;16.936;2023-07-29T10:03:44;2.95;;;2.10;;
53903;SDS011;39812;52.430;16.936;2023-07-29T10:06:10;2.25;;;1.85;;
53903;SDS011;39812;52.430;16.936;2023-07-29T10:08:37;2.35;;;1.98;;
53903;SDS011;39812;52.430;16.936;2023-07-29T10:11:08;3.30;;;2.17;;
53903;SDS011;39812;52.430;16.936;2023-07-29T10:13:34;3.72;;;2.10;;
53903;SDS011;39812;52.430;16.936;2023-07-29T10:16:02;4.63;;;1.90;;
53903;SDS011;39812;52.430;16.936;2023-07-29T10:18:28;4.63;;;2.20;;
53903;SDS011;39812;52.430;16.936;2023-07-29T10:20:56;3.42;;;2.47;;
53903;SDS011;39812;52.430;16.936;2023-07-29T10:23:23;3.83;;;2.28;;
53903;SDS011;39812;52.430;16.936;2023-07-29T10:25:54;3.83;;;2.60;;
53903;SDS011;39812;52.430;16.936;2023-07-29T10:28:25;6.78;;;2.30;;
53903;SDS011;39812;52.430;16.936;2023-07-29T10:30:51;4.68;;;2.05;;
53903;SDS011;39812;52.430;16.936;2023-07-29T10:33:18;3.13;;;1.95;;
53903;SDS011;39812;52.430;16.936;2023-07-29T10:35:44;3.75;;;2.45;;
53903;SDS011;39812;52.430;16.936;2023-07-29T10:38:10;2.70;;;2.15;;
53903;SDS011;39812;52.430;16.936;2023-07-29T10:43:12;6.78;;;2.83;;
53903;SDS011;39812;52.430;16.936;2023-07-29T10:45:43;3.08;;;2.30;;
53903;SDS011;39812;52.430;16.936;2023-07-29T10:48:12;2.85;;;2.15;;
53903;SDS011;39812;52.430;16.936;2023-07-29T10:54:00;5.43;;;2.30;;
53903;SDS011;39812;52.430;16.936;2023-07-29T10:56:28;3.72;;;2.42;;
53903;SDS011;39812;52.430;16.936;2023-07-29T10:58:56;5.45;;;2.10;;
53903;SDS011;39812;52.430;16.936;2023-07-29T11:01:27;4.93;;;2.40;;
53903;SDS011;39812;52.430;16.936;2023-07-29T11:07:30;2.47;;;2.10;;
53903;SDS011;39812;52.430;16.936;2023-07-29T11:12:33;2.58;;;2.13;;
53903;SDS011;39812;52.430;16.936;2023-07-29T11:15:00;3.35;;;2.40;;
53903;SDS011;39812;52.430;16.936;2023-07-29T11:17:33;4.18;;;1.98;;
53903;SDS011;39812;52.430;16.936;2023-07-29T11:20:01;2.80;;;2.25;;
53903;SDS011;39812;52.430;16.936;2023-07-29T11:22:28;2.20;;;1.88;;
53903;SDS011;39812;52.430;16.936;2023-07-29T11:24:54;2.45;;;1.98;;
53903;SDS011;39812;52.430;16.936;2023-07-29T11:27:20;2.30;;;1.95;;
53903;SDS011;39812;52.430;16.936;2023-07-29T11:29:46;2.45;;;2.10;;
53903;SDS011;39812;52.430;16.936;2023-07-29T11:32:12;2.58;;;2.10;;
53903;SDS011;39812;52.430;16.936;2023-07-29T11:34:38;4.80;;;2.08;;
53903;SDS011;39812;52.430;16.936;2023-07-29T11:37:09;2.45;;;2.00;;
53903;SDS011;39812;52.430;16.936;2023-07-29T11:39:41;2.55;;;1.95;;
53903;SDS011;39812;52.430;16.936;2023-07-29T11:42:11;3.00;;;1.85;;
53903;SDS011;39812;52.430;16.936;2023-07-29T11:44:37;4.25;;;1.88;;
53903;SDS011;39812;52.430;16.936;2023-07-29T11:47:06;3.25;;;1.60;;
53903;SDS011;39812;52.430;16.936;2023-07-29T11:49:33;1.90;;;1.55;;
53903;SDS011;39812;52.430;16.936;2023-07-29T11:51:59;1.77;;;1.45;;
53903;SDS011;39812;52.430;16.936;2023-07-29T11:54:26;2.08;;;1.35;;
53903;SDS011;39812;52.430;16.936;2023-07-29T11:56:51;2.90;;;1.40;;
53903;SDS011;39812;52.430;16.936;2023-07-29T11:59:17;4.00;;;1.35;;
53903;SDS011;39812;52.430;16.936;2023-07-29T12:01:43;1.92;;;1.40;;
53903;SDS011;39812;52.430;16.936;2023-07-29T12:04:08;1.80;;;1.20;;
53903;SDS011;39812;52.430;16.936;2023-07-29T12:06:34;3.53;;;1.40;;
53903;SDS011;39812;52.430;16.936;2023-07-29T12:09:00;2.53;;;1.38;;
53903;SDS011;39812;52.430;16.936;2023-07-29T12:11:26;2.10;;;1.48;;
53903;SDS011;39812;52.430;16.936;2023-07-29T12:13:55;3.40;;;1.50;;
53903;SDS011;39812;52.430;16.936;2023-07-29T12:16:21;4.47;;;1.42;;
53903;SDS011;39812;52.430;16.936;2023-07-29T12:18:46;1.88;;;1.38;;
53903;SDS011;39812;52.430;16.936;2023-07-29T12:21:14;2.78;;;1.70;;
53903;SDS011;39812;52.430;16.936;2023-07-29T12:23:40;1.65;;;1.40;;
53903;SDS011;39812;52.430;16.936;2023-07-29T12:26:06;1.75;;;1.27;;
53903;SDS011;39812;52.430;16.936;2023-07-29T12:28:32;1.67;;;1.33;;
53903;SDS011;39812;52.430;16.936;2023-07-29T12:30:57;2.22;;;1.63;;
53903;SDS011;39812;52.430;16.936;2023-07-29T12:33:33;3.03;;;1.40;;
53903;SDS011;39812;52.430;16.936;2023-07-29T12:36:00;2.78;;;1.48;;
53903;SDS011;39812;52.430;16.936;2023-07-29T12:38:26;3.15;;;2.13;;
53903;SDS011;39812;52.430;16.936;2023-07-29T12:40:52;1.48;;;1.17;;
53903;SDS011;39812;52.430;16.936;2023-07-29T12:43:18;2.60;;;1.40;;
53903;SDS011;39812;52.430;16.936;2023-07-29T12:45:43;2.70;;;1.20;;
53903;SDS011;39812;52.430;16.936;2023-07-29T12:48:09;3.17;;;1.52;;
53903;SDS011;39812;52.430;16.936;2023-07-29T12:50:35;2.08;;;1.40;;
53903;SDS011;39812;52.430;16.936;2023-07-29T12:53:02;1.85;;;1.40;;
53903;SDS011;39812;52.430;16.936;2023-07-29T12:55:27;3.88;;;1.55;;
53903;SDS011;39812;52.430;16.936;2023-07-29T12:57:53;3.28;;;1.60;;
53903;SDS011;39812;52.430;16.936;2023-07-29T13:00:19;1.58;;;1.17;;
53903;SDS011;39812;52.430;16.936;2023-07-29T13:02:44;2.22;;;1.40;;
53903;SDS011;39812;52.430;16.936;2023-07-29T13:05:10;1.85;;;1.40;;
53903;SDS011;39812;52.430;16.936;2023-07-29T13:07:37;2.67;;;1.27;;
53903;SDS011;39812;52.430;16.936;2023-07-29T13:10:07;3.40;;;1.48;;
53903;SDS011;39812;52.430;16.936;2023-07-29T13:12:33;4.45;;;1.45;;
53903;SDS011;39812;52.430;16.936;2023-07-29T13:14:59;2.45;;;1.30;;
53903;SDS011;39812;52.430;16.936;2023-07-29T13:17:25;4.55;;;1.45;;
53903;SDS011;39812;52.430;16.936;2023-07-29T13:19:50;2.08;;;1.33;;
53903;SDS011;39812;52.430;16.936;2023-07-29T13:22:16;2.65;;;1.45;;
53903;SDS011;39812;52.430;16.936;2023-07-29T13:24:42;3.03;;;1.50;;
53903;SDS011;39812;52.430;16.936;2023-07-29T13:27:08;2.40;;;1.33;;
53903;SDS011;39812;52.430;16.936;2023-07-29T13:29:34;2.05;;;1.50;;
53903;SDS011;39812;52.430;16.936;2023-07-29T13:31:59;2.22;;;1.33;;
53903;SDS011;39812;52.430;16.936;2023-07-29T13:34:25;1.73;;;1.27;;
53903;SDS011;39812;52.430;16.936;2023-07-29T13:36:50;3.22;;;1.50;;
53903;SDS011;39812;52.430;16.936;2023-07-29T13:39:16;1.73;;;1.40;;
53903;SDS011;39812;52.430;16.936;2023-07-29T13:41:41;1.50;;;1.15;;
53903;SDS011;39812;52.430;16.936;2023-07-29T13:44:07;2.55;;;1.38;;
53903;SDS011;39812;52.430;16.936;2023-07-29T13:46:33;3.83;;;1.30;;
53903;SDS011;39812;52.430;16.936;2023-07-29T13:48:58;1.85;;;1.30;;
53903;SDS011;39812;52.430;16.936;2023-07-29T13:51:24;1.90;;;1.27;;
53903;SDS011;39812;52.430;16.936;2023-07-29T13:53:50;2.63;;;1.40;;
53903;SDS011;39812;52.430;16.936;2023-07-29T13:56:15;4.25;;;1.60;;
53903;SDS011;39812;52.430;16.936;2023-07-29T13:58:41;2.53;;;1.58;;
53903;SDS011;39812;52.430;16.936;2023-07-29T14:01:06;2.38;;;1.23;;
53903;SDS011;39812;52.430;16.936;2023-07-29T14:03:32;5.07;;;1.92;;
53903;SDS011;39812;52.430;16.936;2023-07-29T14:05:58;7.07;;;2.20;;
53903;SDS011;39812;52.430;16.936;2023-07-29T14:08:23;5.22;;;2.53;;
53903;SDS011;39812;52.430;16.936;2023-07-29T14:10:49;5.05;;;2.85;;
53903;SDS011;39812;52.430;16.936;2023-07-29T14:13:15;5.00;;;2.20;;
53903;SDS011;39812;52.430;16.936;2023-07-29T14:15:41;5.78;;;2.70;;
53903;SDS011;39812;52.430;16.936;2023-07-29T14:18:06;3.92;;;2.88;;
53903;SDS011;39812;52.430;16.936;2023-07-29T14:20:32;9.50;;;4.85;;
53903;SDS011;39812;52.430;16.936;2023-07-29T14:22:58;6.88;;;6.10;;
53903;SDS011;39812;52.430;16.936;2023-07-29T14:25:24;7.40;;;4.57;;
53903;SDS011;39812;52.430;16.936;2023-07-29T14:27:50;4.80;;;3.15;;
53903;SDS011;39812;52.430;16.936;2023-07-29T14:30:15;4.63;;;2.22;;
53903;SDS011;39812;52.430;16.936;2023-07-29T14:32:41;2.10;;;1.90;;
53903;SDS011;39812;52.430;16.936;2023-07-29T14:35:07;2.40;;;1.70;;
53903;SDS011;39812;52.430;16.936;2023-07-29T14:37:33;1.88;;;1.20;;
53903;SDS011;39812;52.430;16.936;2023-07-29T14:39:59;3.25;;;1.50;;